createdAt,value
2022-10-05T00:01:43.845Z,8.10
2022-10-05T00:04:19.489Z,8.06
2022-10-05T00:06:55.681Z,8.02
2022-10-05T00:09:23.070Z,8.04
2022-10-05T00:11:51.086Z,8.04
2022-10-05T00:14:19.486Z,8.04
2022-10-05T00:16:46.812Z,8.04
2022-10-05T00:19:23.089Z,7.99
2022-10-05T00:21:50.160Z,7.96
2022-10-05T00:24:20.291Z,6.70
2022-10-05T00:26:47.095Z,7.64
2022-10-05T00:29:22.132Z,7.94
2022-10-05T00:31:49.812Z,8.14
2022-10-05T00:34:17.600Z,7.26
2022-10-05T00:36:45.183Z,8.12
2022-10-05T00:39:11.928Z,7.50
2022-10-05T00:41:53.707Z,6.51
2022-10-05T00:45:05.195Z,7.70
2022-10-05T00:47:37.880Z,8.07
2022-10-05T00:50:23.237Z,6.98
2022-10-05T00:53:16.495Z,7.49
2022-10-05T00:55:42.917Z,8.28
2022-10-05T00:58:27.170Z,6.91
2022-10-05T01:01:09.099Z,8.32
2022-10-05T01:04:06.173Z,8.30
2022-10-05T01:06:54.139Z,8.24
2022-10-05T01:09:38.410Z,7.81
2022-10-05T01:12:21.132Z,8.30
2022-10-05T01:14:50.670Z,8.37
2022-10-05T01:17:41.901Z,8.47
2022-10-05T01:20:23.595Z,8.58
2022-10-05T01:23:05.534Z,8.48
2022-10-05T01:25:55.466Z,7.64
2022-10-05T01:28:28.738Z,7.81
2022-10-05T01:31:08.473Z,8.37
2022-10-05T01:34:01.909Z,8.35
2022-10-05T01:36:35.503Z,8.28
2022-10-05T01:39:27.334Z,8.18
2022-10-05T01:42:11.541Z,6.75
2022-10-05T01:45:10.013Z,8.13
2022-10-05T01:47:48.000Z,8.13
2022-10-05T01:50:25.122Z,7.56
2022-10-05T01:53:31.859Z,7.81
2022-10-05T01:56:37.614Z,8.22
2022-10-05T01:59:19.356Z,8.29
2022-10-05T02:01:57.387Z,8.28
2022-10-05T02:05:00.817Z,8.27
2022-10-05T02:07:27.112Z,8.37
2022-10-05T02:10:00.724Z,8.29
2022-10-05T02:12:31.383Z,6.20
2022-10-05T02:15:08.154Z,8.02
2022-10-05T02:17:59.170Z,8.17
2022-10-05T02:20:29.721Z,8.27
2022-10-05T02:23:02.023Z,8.42
2022-10-05T02:25:35.335Z,7.39
2022-10-05T02:28:09.099Z,8.13
2022-10-05T02:30:43.043Z,8.24
2022-10-05T02:33:30.017Z,8.49
2022-10-05T02:36:07.631Z,8.41
2022-10-05T02:38:57.419Z,7.62
2022-10-05T02:41:48.684Z,8.27
2022-10-05T02:44:45.111Z,8.32
2022-10-05T02:47:28.267Z,8.33
2022-10-05T02:50:27.169Z,6.22
2022-10-05T02:53:14.845Z,8.33
2022-10-05T02:55:59.340Z,8.32
2022-10-05T02:58:34.544Z,8.33
2022-10-05T03:01:16.712Z,7.54
2022-10-05T03:03:51.220Z,8.18
2022-10-05T03:06:27.656Z,8.07
2022-10-05T03:09:00.128Z,8.07
2022-10-05T03:11:49.308Z,8.12
2022-10-05T03:14:21.766Z,8.24
2022-10-05T03:17:09.631Z,8.32
2022-10-05T03:20:03.393Z,8.32
2022-10-05T03:22:34.258Z,8.37
2022-10-05T03:25:39.786Z,6.47
2022-10-05T03:28:20.166Z,8.40
2022-10-05T03:31:00.579Z,8.50
2022-10-05T03:33:46.456Z,8.58
2022-10-05T03:36:20.868Z,8.55
2022-10-05T03:38:57.735Z,8.29
2022-10-05T03:41:47.858Z,8.43
2022-10-05T03:44:42.738Z,8.22
2022-10-05T03:47:31.182Z,8.47
2022-10-05T03:50:04.483Z,8.44
2022-10-05T03:52:44.163Z,7.71
2022-10-05T03:55:24.261Z,8.50
2022-10-05T03:57:56.543Z,8.48
2022-10-05T04:00:23.569Z,7.36
2022-10-05T04:03:30.989Z,8.49
2022-10-05T04:06:18.935Z,8.53
2022-10-05T04:09:04.556Z,8.27
2022-10-05T04:11:43.486Z,8.52
2022-10-05T04:14:21.317Z,8.52
2022-10-05T04:16:54.891Z,8.49
2022-10-05T04:19:52.359Z,8.51
2022-10-05T04:22:30.874Z,8.23
2022-10-05T04:25:16.803Z,7.78
2022-10-05T04:27:50.917Z,8.47
2022-10-05T04:30:22.251Z,8.36
2022-10-05T04:32:59.180Z,7.81
2022-10-05T04:35:48.853Z,8.48
2022-10-05T04:38:43.101Z,8.47
2022-10-05T04:41:37.156Z,8.33
2022-10-05T04:44:33.759Z,8.61
2022-10-05T04:47:25.358Z,8.61
2022-10-05T04:50:13.340Z,8.22
2022-10-05T04:52:59.904Z,8.62
2022-10-05T04:55:48.968Z,8.64
2022-10-05T04:58:32.602Z,8.59
2022-10-05T05:01:35.387Z,8.58
2022-10-05T05:04:20.472Z,8.62
2022-10-05T05:06:51.123Z,8.59
2022-10-05T05:09:26.537Z,8.64
2022-10-05T05:12:30.774Z,8.72
2022-10-05T05:15:21.963Z,8.67
2022-10-05T05:18:34.627Z,8.61
2022-10-05T05:21:19.489Z,8.70
2022-10-05T05:24:19.876Z,8.61
2022-10-05T05:27:16.372Z,8.68
2022-10-05T05:29:50.137Z,8.30
2022-10-05T05:32:43.114Z,8.78
2022-10-05T05:35:27.908Z,8.97
2022-10-05T05:38:21.801Z,8.92
2022-10-05T05:41:06.800Z,8.93
2022-10-05T05:43:49.948Z,9.00
2022-10-05T05:46:51.279Z,8.99
2022-10-05T05:49:27.704Z,8.96
2022-10-05T05:52:06.426Z,8.20
2022-10-05T05:54:36.299Z,9.01
2022-10-05T05:57:10.815Z,8.16
2022-10-05T06:00:05.498Z,8.55
2022-10-05T06:02:54.718Z,9.00
2022-10-05T06:05:38.165Z,9.22
2022-10-05T06:08:16.141Z,8.99
2022-10-05T06:10:53.112Z,8.99
2022-10-05T06:13:34.902Z,8.60
2022-10-05T06:16:12.805Z,9.38
2022-10-05T06:18:44.160Z,9.46
2022-10-05T06:21:26.838Z,9.41
2022-10-05T06:24:02.646Z,9.51
2022-10-05T06:26:41.507Z,7.89
2022-10-05T06:29:14.486Z,9.36
2022-10-05T06:31:59.089Z,9.15
2022-10-05T06:34:51.735Z,9.62
2022-10-05T06:38:15.239Z,9.75
2022-10-05T06:41:06.219Z,9.92
2022-10-05T06:43:54.732Z,9.93
2022-10-05T06:47:04.503Z,9.31
2022-10-05T06:49:58.284Z,10.04
2022-10-05T06:52:57.828Z,10.14
2022-10-05T06:55:30.825Z,9.55
2022-10-05T06:58:03.783Z,10.04
2022-10-05T07:00:49.221Z,9.64
2022-10-05T07:03:34.421Z,10.23
2022-10-05T07:06:10.749Z,9.62
2022-10-05T07:08:53.193Z,10.40
2022-10-05T07:11:25.620Z,10.39
2022-10-05T07:13:58.496Z,10.30
2022-10-05T07:16:36.595Z,10.25
2022-10-05T07:19:31.104Z,10.26
2022-10-05T07:22:28.313Z,9.59
2022-10-05T07:25:15.839Z,9.69
2022-10-05T07:28:23.263Z,10.28
2022-10-05T07:31:17.100Z,10.28
2022-10-05T07:34:21.277Z,10.39
2022-10-05T07:37:16.033Z,9.88
2022-10-05T07:39:59.490Z,10.29
2022-10-05T07:42:50.544Z,10.32
2022-10-05T07:45:28.255Z,10.30
2022-10-05T07:47:58.092Z,10.01
2022-10-05T07:50:59.399Z,10.26
2022-10-05T07:53:40.524Z,10.35
2022-10-05T07:56:25.701Z,10.49
2022-10-05T07:59:16.270Z,10.58
2022-10-05T08:01:47.294Z,10.80
2022-10-05T08:04:27.178Z,10.78
2022-10-05T08:07:01.062Z,11.04
2022-10-05T08:09:39.211Z,10.32
2022-10-05T08:12:42.664Z,11.12
2022-10-05T08:15:16.092Z,11.12
2022-10-05T08:17:52.688Z,11.06
2022-10-05T08:20:37.911Z,10.27
2022-10-05T08:23:21.754Z,10.94
2022-10-05T08:26:02.618Z,10.88
2022-10-05T08:29:03.076Z,10.77
2022-10-05T08:31:37.276Z,10.75
2022-10-05T08:34:13.125Z,10.81
2022-10-05T08:36:39.568Z,10.75
2022-10-05T08:39:19.965Z,10.20
2022-10-05T08:42:28.757Z,10.68
2022-10-05T08:45:10.758Z,10.59
2022-10-05T08:47:40.433Z,10.82
2022-10-05T08:50:31.881Z,10.88
2022-10-05T08:53:13.087Z,10.97
2022-10-05T08:55:56.223Z,10.03
2022-10-05T08:58:31.757Z,11.04
2022-10-05T09:01:04.298Z,11.04
2022-10-05T09:03:41.210Z,10.49
2022-10-05T09:06:22.348Z,10.92
2022-10-05T09:09:25.307Z,11.00
2022-10-05T09:12:11.022Z,10.66
2022-10-05T09:15:24.866Z,10.55
2022-10-05T09:18:49.847Z,10.72
2022-10-05T09:21:33.947Z,10.99
2022-10-05T09:24:22.684Z,10.86
2022-10-05T09:27:01.821Z,11.09
2022-10-05T09:29:49.845Z,11.11
2022-10-05T09:32:28.081Z,10.96
2022-10-05T09:35:08.305Z,10.81
2022-10-05T09:37:44.425Z,11.21
2022-10-05T09:40:41.454Z,10.91
2022-10-05T09:43:32.842Z,10.62
2022-10-05T09:46:21.236Z,11.09
2022-10-05T09:48:56.773Z,11.12
2022-10-05T09:51:54.368Z,11.15
2022-10-05T09:54:43.680Z,10.33
2022-10-05T09:57:32.136Z,11.21
2022-10-05T10:00:31.165Z,11.20
2022-10-05T10:03:06.771Z,11.22
2022-10-05T10:06:10.527Z,11.34
2022-10-05T10:09:06.371Z,10.62
2022-10-05T10:11:41.960Z,11.55
2022-10-05T10:14:24.551Z,11.61
2022-10-05T10:17:10.811Z,11.68
2022-10-05T10:19:57.190Z,11.78
2022-10-05T10:22:30.791Z,11.87
2022-10-05T10:25:20.524Z,12.06
2022-10-05T10:28:08.101Z,12.20
2022-10-05T10:30:51.814Z,12.54
2022-10-05T10:33:52.535Z,12.71
2022-10-05T10:36:39.335Z,11.77
2022-10-05T10:40:03.529Z,12.73
2022-10-05T10:42:50.962Z,12.73
2022-10-05T10:45:42.607Z,12.59
2022-10-05T10:48:21.141Z,12.59
2022-10-05T10:51:13.689Z,12.40
2022-10-05T10:54:12.185Z,11.91
2022-10-05T10:57:10.122Z,12.13
2022-10-05T10:59:52.464Z,12.25
2022-10-05T11:02:42.221Z,12.23
2022-10-05T11:05:48.835Z,12.27
2022-10-05T11:08:16.043Z,12.33
2022-10-05T11:11:13.222Z,12.43
2022-10-05T11:14:02.774Z,12.50
2022-10-05T11:16:38.818Z,12.19
2022-10-05T11:19:17.546Z,12.36
2022-10-05T11:22:00.168Z,12.46
2022-10-05T11:24:56.132Z,12.37
2022-10-05T11:27:40.844Z,12.41
2022-10-05T11:30:47.450Z,12.43
2022-10-05T11:33:58.365Z,11.86
2022-10-05T11:36:38.142Z,12.55
2022-10-05T11:39:30.521Z,12.57
2022-10-05T11:42:48.704Z,12.58
2022-10-05T11:45:36.191Z,12.70
2022-10-05T11:48:28.942Z,12.82
2022-10-05T11:51:27.784Z,12.88
2022-10-05T11:54:18.420Z,11.97
2022-10-05T11:56:54.668Z,13.14
2022-10-05T11:59:30.560Z,13.16
2022-10-05T12:02:14.485Z,12.21
2022-10-05T12:05:10.727Z,13.03
2022-10-05T12:07:51.459Z,12.92
2022-10-05T12:10:32.682Z,12.81
2022-10-05T12:13:22.313Z,12.69
2022-10-05T12:16:04.968Z,12.66
2022-10-05T12:18:31.503Z,12.65
2022-10-05T12:21:19.921Z,12.64
2022-10-05T12:24:03.291Z,12.63
2022-10-05T12:26:40.516Z,12.62
2022-10-05T12:29:36.087Z,12.59
2022-10-05T12:32:12.249Z,12.69
2022-10-05T12:35:01.428Z,12.75
2022-10-05T12:37:52.834Z,12.71
2022-10-05T12:40:40.207Z,12.76
2022-10-05T12:43:43.131Z,12.36
2022-10-05T12:46:59.165Z,12.44
2022-10-05T12:50:02.083Z,13.00
2022-10-05T12:52:57.192Z,13.03
2022-10-05T12:56:00.458Z,13.10
2022-10-05T12:58:56.119Z,13.10
2022-10-05T13:01:40.918Z,13.02
2022-10-05T13:04:25.491Z,12.75
2022-10-05T13:07:10.610Z,12.93
2022-10-05T13:09:44.130Z,12.46
2022-10-05T13:12:35.343Z,12.43
2022-10-05T13:15:20.055Z,12.56
2022-10-05T13:18:22.259Z,12.89
2022-10-05T13:21:02.825Z,13.18
2022-10-05T13:23:44.825Z,13.17
2022-10-05T13:26:17.608Z,13.05
2022-10-05T13:29:04.485Z,13.21
2022-10-05T13:31:40.519Z,13.26
2022-10-05T13:34:33.713Z,13.23
2022-10-05T13:37:23.154Z,13.21
2022-10-05T13:40:20.028Z,12.97
2022-10-05T13:43:05.209Z,12.56
2022-10-05T13:45:42.385Z,13.21
2022-10-05T13:48:14.708Z,13.23
2022-10-05T13:51:04.407Z,13.14
2022-10-05T13:53:48.012Z,12.84
2022-10-05T13:56:39.427Z,10.90
2022-10-05T13:59:24.612Z,12.99
2022-10-05T14:02:08.615Z,12.84
2022-10-05T14:04:48.234Z,12.18
2022-10-05T14:07:37.073Z,12.94
2022-10-05T14:10:11.569Z,12.88
2022-10-05T14:12:44.282Z,12.83
2022-10-05T14:15:32.174Z,12.79
2022-10-05T14:17:59.571Z,12.70
2022-10-05T14:20:28.758Z,12.25
2022-10-05T14:23:24.629Z,12.63
2022-10-05T14:25:54.415Z,12.30
2022-10-05T14:28:29.680Z,12.66
2022-10-05T14:31:00.881Z,12.65
2022-10-05T14:33:32.695Z,12.31
2022-10-05T14:36:00.449Z,12.62
2022-10-05T14:38:29.877Z,12.65
2022-10-05T14:41:20.423Z,11.91
2022-10-05T14:44:02.096Z,12.58
2022-10-05T14:46:32.686Z,12.59
2022-10-05T14:49:13.431Z,12.34
2022-10-05T14:51:42.164Z,12.55
2022-10-05T14:54:29.141Z,12.54
2022-10-05T14:57:23.292Z,12.58
2022-10-05T15:00:04.217Z,12.58
2022-10-05T15:02:45.072Z,12.55
2022-10-05T15:05:18.997Z,12.13
2022-10-05T15:07:51.372Z,12.12
2022-10-05T15:10:30.799Z,12.63
2022-10-05T15:13:11.339Z,12.63
2022-10-05T15:15:56.731Z,12.63
2022-10-05T15:18:37.456Z,12.21
2022-10-05T15:21:49.770Z,12.56
2022-10-05T15:24:32.118Z,10.69
2022-10-05T15:27:03.998Z,12.32
2022-10-05T15:30:03.218Z,12.51
2022-10-05T15:32:42.058Z,11.15
2022-10-05T15:35:29.745Z,12.51
2022-10-05T15:38:13.823Z,12.47
2022-10-05T15:40:48.296Z,12.50
2022-10-05T15:43:23.192Z,11.87
2022-10-05T15:46:01.672Z,12.45
2022-10-05T15:48:39.345Z,12.23
2022-10-05T15:51:17.796Z,12.40
2022-10-05T15:54:14.911Z,12.10
2022-10-05T15:56:59.406Z,12.37
2022-10-05T16:00:10.817Z,12.35
2022-10-05T16:03:01.064Z,11.98
2022-10-05T16:05:52.313Z,12.35
2022-10-05T16:08:52.853Z,12.36
2022-10-05T16:11:43.452Z,12.30
2022-10-05T16:14:47.671Z,11.48
2022-10-05T16:17:44.980Z,12.28
2022-10-05T16:20:32.713Z,12.28
2022-10-05T16:23:26.176Z,12.05
2022-10-05T16:26:11.570Z,12.22
2022-10-05T16:29:25.865Z,12.26
2022-10-05T16:32:43.229Z,12.23
2022-10-05T16:35:20.808Z,12.22
2022-10-05T16:38:13.656Z,11.92
2022-10-05T16:41:05.048Z,12.19
2022-10-05T16:43:49.569Z,11.97
2022-10-05T16:46:17.019Z,12.15
2022-10-05T16:49:04.223Z,12.15
2022-10-05T16:51:50.563Z,12.11
2022-10-05T16:54:21.672Z,12.16
2022-10-05T16:56:55.436Z,12.13
2022-10-05T16:59:54.340Z,12.15
2022-10-05T17:02:46.642Z,11.83
2022-10-05T17:05:40.901Z,12.19
2022-10-05T17:08:38.888Z,12.16
2022-10-05T17:11:27.387Z,11.65
2022-10-05T17:14:09.923Z,12.10
2022-10-05T17:16:40.447Z,12.11
2022-10-05T17:19:20.668Z,12.09
2022-10-05T17:22:03.131Z,11.95
2022-10-05T17:24:41.735Z,12.08
2022-10-05T17:27:50.866Z,12.08
2022-10-05T17:30:58.877Z,12.13
2022-10-05T17:33:30.117Z,11.99
2022-10-05T17:36:17.039Z,12.16
2022-10-05T17:39:19.938Z,11.92
2022-10-05T17:41:46.950Z,11.71
2022-10-05T17:44:13.466Z,12.12
2022-10-05T17:46:46.608Z,11.29
2022-10-05T17:49:41.397Z,12.14
2022-10-05T17:52:40.365Z,11.72
2022-10-05T17:55:34.264Z,8.60
2022-10-05T17:58:24.138Z,12.09
2022-10-05T18:00:56.635Z,12.12
2022-10-05T18:03:44.382Z,11.54
2022-10-05T18:06:26.279Z,12.10
2022-10-05T18:09:33.445Z,12.09
2022-10-05T18:12:02.766Z,12.10
2022-10-05T18:15:01.166Z,12.11
2022-10-05T18:17:36.473Z,12.12
2022-10-05T18:20:15.070Z,12.10
2022-10-05T18:22:46.319Z,11.30
2022-10-05T18:25:27.344Z,12.14
2022-10-05T18:28:12.446Z,12.11
2022-10-05T18:31:02.083Z,11.57
2022-10-05T18:33:56.994Z,11.34
2022-10-05T18:36:51.524Z,12.18
2022-10-05T18:39:38.267Z,12.20
2022-10-05T18:42:25.415Z,12.17
2022-10-05T18:45:37.630Z,12.13
2022-10-05T18:48:43.425Z,12.13
2022-10-05T18:51:26.092Z,12.13
2022-10-05T18:54:11.180Z,12.10
2022-10-05T18:57:01.125Z,12.10
2022-10-05T19:00:20.655Z,12.09
2022-10-05T19:03:39.937Z,12.12
2022-10-05T19:06:17.658Z,12.14
2022-10-05T19:09:00.242Z,12.11
2022-10-05T19:11:46.515Z,12.11
2022-10-05T19:14:24.469Z,11.68
2022-10-05T19:17:00.471Z,12.11
2022-10-05T19:19:43.954Z,12.13
2022-10-05T19:22:23.405Z,12.14
2022-10-05T19:25:21.247Z,12.11
2022-10-05T19:27:54.518Z,12.08
2022-10-05T19:30:25.160Z,11.77
2022-10-05T19:33:16.741Z,11.99
2022-10-05T19:35:46.119Z,11.91
2022-10-05T19:38:37.234Z,11.92
2022-10-05T19:41:17.652Z,11.93
2022-10-05T19:43:55.387Z,11.30
2022-10-05T19:46:40.798Z,11.83
2022-10-05T19:49:09.811Z,11.07
2022-10-05T19:51:49.080Z,11.54
2022-10-05T19:54:30.451Z,11.79
2022-10-05T19:57:02.554Z,8.06
2022-10-05T19:59:32.920Z,9.84
2022-10-05T20:01:59.819Z,11.32
2022-10-05T20:04:41.592Z,11.67
2022-10-05T20:07:17.047Z,10.92
2022-10-05T20:09:54.692Z,10.69
2022-10-05T20:12:23.137Z,10.96
2022-10-05T20:15:27.253Z,11.64
2022-10-05T20:18:12.735Z,11.49
2022-10-05T20:20:47.083Z,11.64
2022-10-05T20:23:25.040Z,11.64
2022-10-05T20:26:18.905Z,11.62
2022-10-05T20:28:46.740Z,11.59
2022-10-05T20:31:14.470Z,11.53
2022-10-05T20:33:41.056Z,11.08
2022-10-05T20:36:08.590Z,11.60
2022-10-05T20:38:40.023Z,11.60
2022-10-05T20:41:07.681Z,11.02
2022-10-05T20:43:35.786Z,9.78
2022-10-05T20:46:02.536Z,11.00
2022-10-05T20:48:29.411Z,11.56
2022-10-05T20:50:56.073Z,11.54
2022-10-05T20:53:22.608Z,10.66
2022-10-05T20:55:49.079Z,11.52
2022-10-05T20:58:17.790Z,11.13
2022-10-05T21:01:02.799Z,11.56
2022-10-05T21:03:29.318Z,11.58
2022-10-05T21:05:55.969Z,10.97
2022-10-05T21:08:22.532Z,11.50
2022-10-05T21:10:50.416Z,10.84
2022-10-05T21:13:17.604Z,10.82
2022-10-05T21:15:44.891Z,11.04
2022-10-05T21:18:11.418Z,11.37
2022-10-05T21:20:37.943Z,11.32
2022-10-05T21:23:04.477Z,10.68
2022-10-05T21:25:30.983Z,10.84
2022-10-05T21:27:57.625Z,10.85
2022-10-05T21:30:24.230Z,11.25
2022-10-05T21:32:52.384Z,11.02
2022-10-05T21:35:21.932Z,11.23
2022-10-05T21:37:48.383Z,11.20
2022-10-05T21:40:18.562Z,11.00
2022-10-05T21:42:45.409Z,9.47
2022-10-05T21:45:11.926Z,9.26
2022-10-05T21:47:38.470Z,10.93
2022-10-05T21:50:06.231Z,10.30
2022-10-05T21:52:34.273Z,10.39
2022-10-05T21:55:02.236Z,11.05
2022-10-05T21:57:28.727Z,11.05
2022-10-05T21:59:55.243Z,11.04
2022-10-05T22:02:21.753Z,10.80
2022-10-05T22:04:48.233Z,11.10
2022-10-05T22:07:19.200Z,11.06
2022-10-05T22:09:49.376Z,11.03
2022-10-05T22:12:15.980Z,11.03
2022-10-05T22:14:42.472Z,10.18
2022-10-05T22:17:33.821Z,10.81
2022-10-05T22:20:01.298Z,10.70
2022-10-05T22:22:29.154Z,10.93
2022-10-05T22:24:55.890Z,10.70
2022-10-05T22:27:24.340Z,10.91
2022-10-05T22:29:51.354Z,10.95
2022-10-05T22:32:18.019Z,10.62
2022-10-05T22:34:44.955Z,10.98
2022-10-05T22:37:13.137Z,11.00
2022-10-05T22:39:40.369Z,10.97
2022-10-05T22:42:07.521Z,10.91
2022-10-05T22:44:34.595Z,9.22
2022-10-05T22:47:02.383Z,10.91
2022-10-05T22:49:28.972Z,10.23
2022-10-05T22:51:55.489Z,10.52
2022-10-05T22:54:24.389Z,10.79
2022-10-05T22:56:54.093Z,10.49
2022-10-05T22:59:20.597Z,9.82
2022-10-05T23:01:47.180Z,10.51
2022-10-05T23:04:13.725Z,10.17
2022-10-05T23:06:40.252Z,10.39
2022-10-05T23:09:06.795Z,10.66
2022-10-05T23:11:33.334Z,9.87
2022-10-05T23:14:00.406Z,9.86
2022-10-05T23:16:29.038Z,10.34
2022-10-05T23:18:55.927Z,10.58
2022-10-05T23:21:25.035Z,10.58
2022-10-05T23:23:51.614Z,10.53
2022-10-05T23:26:21.008Z,10.26
2022-10-05T23:28:48.043Z,9.56
2022-10-05T23:31:17.074Z,10.29
2022-10-05T23:33:43.795Z,10.48
2022-10-05T23:36:21.667Z,10.46
2022-10-05T23:38:48.370Z,10.23
2022-10-05T23:41:16.054Z,9.98
2022-10-05T23:43:43.268Z,9.92
2022-10-05T23:46:10.476Z,10.00
2022-10-05T23:48:40.285Z,9.74
2022-10-05T23:51:08.665Z,10.15
2022-10-05T23:53:35.207Z,10.07
2022-10-05T23:56:01.830Z,9.75
2022-10-05T23:58:28.813Z,8.34
